< < Back
Terminal Aerodrome Forecast


Current Version              Previous Versions:   1  2  3  4  5  6  7  8  9  

Terminal Aerodrome Forecast

307
FTAK31 PAJN 301605 AAA
TAFAHN
TAF AMD
PAHN 301605Z 3016/0112 09007KT P6SM VCSH BKN019 BKN080
      TEMPO 3016/3019 09007G17KT 6SM -SHRA BR OVC010
     FM301900 13009KT P6SM VCSH SCT025 BKN060
     FM010000 11010KT P6SM SCT030 BKN070
     FM010300 10006KT P6SM SCT030 BKN080
      AMD LTD TO CLD VIS AND WIND=



Latest METAR

965
SAUS70 KWBC 302100 RRW
MTRAHN
METAR KAHN 302051Z 00000KT 10SM FEW048 FEW060 BKN080 31/22 A2995 RMK AO2
LTG DSNT N AND NE AND SW SLP133 T03110217 55014


USA.gov is the U.S. government's official web portal to all federal, state and local government web resources and services.